sensor_id;sensor_type;location;lat;lon;timestamp;P1;durP1;ratioP1;P2;durP2;ratioP2
54849;SDS011;47660;51.334;12.396;2023-05-14T00:01:15;5.13;;;3.58;;
54849;SDS011;47660;51.334;12.396;2023-05-14T00:03:41;6.53;;;3.60;;
54849;SDS011;47660;51.334;12.396;2023-05-14T00:06:07;4.68;;;3.78;;
54849;SDS011;47660;51.334;12.396;2023-05-14T00:08:34;4.28;;;3.35;;
54849;SDS011;47660;51.334;12.396;2023-05-14T00:11:00;7.57;;;3.85;;
54849;SDS011;47660;51.334;12.396;2023-05-14T00:13:28;6.18;;;3.72;;
54849;SDS011;47660;51.334;12.396;2023-05-14T00:15:54;5.72;;;3.92;;
54849;SDS011;47660;51.334;12.396;2023-05-14T00:18:19;4.70;;;3.40;;
54849;SDS011;47660;51.334;12.396;2023-05-14T00:20:47;5.40;;;3.40;;
54849;SDS011;47660;51.334;12.396;2023-05-14T00:23:13;6.57;;;3.70;;
54849;SDS011;47660;51.334;12.396;2023-05-14T00:25:38;5.68;;;3.65;;
54849;SDS011;47660;51.334;12.396;2023-05-14T00:28:09;5.10;;;3.80;;
54849;SDS011;47660;51.334;12.396;2023-05-14T00:30:34;5.22;;;3.60;;
54849;SDS011;47660;51.334;12.396;2023-05-14T00:33:02;5.30;;;3.63;;
54849;SDS011;47660;51.334;12.396;2023-05-14T00:35:30;4.60;;;3.15;;
54849;SDS011;47660;51.334;12.396;2023-05-14T00:37:55;5.28;;;3.20;;
54849;SDS011;47660;51.334;12.396;2023-05-14T00:40:30;4.80;;;3.20;;
54849;SDS011;47660;51.334;12.396;2023-05-14T00:42:55;5.63;;;4.00;;
54849;SDS011;47660;51.334;12.396;2023-05-14T00:45:23;4.97;;;3.65;;
54849;SDS011;47660;51.334;12.396;2023-05-14T00:47:49;4.95;;;3.45;;
54849;SDS011;47660;51.334;12.396;2023-05-14T00:50:15;5.38;;;3.72;;
54849;SDS011;47660;51.334;12.396;2023-05-14T00:52:42;6.05;;;3.50;;
54849;SDS011;47660;51.334;12.396;2023-05-14T00:55:08;4.57;;;3.60;;
54849;SDS011;47660;51.334;12.396;2023-05-14T00:57:36;4.28;;;2.97;;
54849;SDS011;47660;51.334;12.396;2023-05-14T01:00:02;5.35;;;3.55;;
54849;SDS011;47660;51.334;12.396;2023-05-14T01:02:29;5.25;;;3.78;;
54849;SDS011;47660;51.334;12.396;2023-05-14T01:04:57;6.63;;;3.45;;
54849;SDS011;47660;51.334;12.396;2023-05-14T01:15:43;5.20;;;3.45;;
54849;SDS011;47660;51.334;12.396;2023-05-14T01:18:12;8.60;;;3.58;;
54849;SDS011;47660;51.334;12.396;2023-05-14T01:20:38;5.32;;;3.20;;
54849;SDS011;47660;51.334;12.396;2023-05-14T01:23:04;4.78;;;3.30;;
54849;SDS011;47660;51.334;12.396;2023-05-14T01:25:30;4.80;;;3.47;;
54849;SDS011;47660;51.334;12.396;2023-05-14T01:30:42;6.50;;;3.55;;
54849;SDS011;47660;51.334;12.396;2023-05-14T01:33:21;8.02;;;3.58;;
54849;SDS011;47660;51.334;12.396;2023-05-14T01:35:53;5.85;;;3.35;;
54849;SDS011;47660;51.334;12.396;2023-05-14T01:38:19;6.85;;;4.10;;
54849;SDS011;47660;51.334;12.396;2023-05-14T01:40:46;5.20;;;3.42;;
54849;SDS011;47660;51.334;12.396;2023-05-14T01:43:13;6.03;;;3.75;;
54849;SDS011;47660;51.334;12.396;2023-05-14T01:45:40;6.72;;;3.78;;
54849;SDS011;47660;51.334;12.396;2023-05-14T01:48:06;4.90;;;3.50;;
54849;SDS011;47660;51.334;12.396;2023-05-14T01:50:33;5.38;;;3.83;;
54849;SDS011;47660;51.334;12.396;2023-05-14T01:52:59;4.70;;;3.40;;
54849;SDS011;47660;51.334;12.396;2023-05-14T01:55:24;4.93;;;3.50;;
54849;SDS011;47660;51.334;12.396;2023-05-14T01:57:50;4.50;;;3.50;;
54849;SDS011;47660;51.334;12.396;2023-05-14T02:00:19;6.93;;;3.95;;
54849;SDS011;47660;51.334;12.396;2023-05-14T02:02:45;5.18;;;3.47;;
54849;SDS011;47660;51.334;12.396;2023-05-14T02:05:11;4.53;;;3.60;;
54849;SDS011;47660;51.334;12.396;2023-05-14T02:07:37;5.60;;;3.88;;
54849;SDS011;47660;51.334;12.396;2023-05-14T02:10:03;5.70;;;3.55;;
54849;SDS011;47660;51.334;12.396;2023-05-14T02:12:29;6.35;;;3.50;;
54849;SDS011;47660;51.334;12.396;2023-05-14T02:14:54;5.57;;;4.15;;
54849;SDS011;47660;51.334;12.396;2023-05-14T02:17:23;5.35;;;3.67;;
54849;SDS011;47660;51.334;12.396;2023-05-14T02:19:51;4.78;;;3.55;;
54849;SDS011;47660;51.334;12.396;2023-05-14T02:22:19;4.28;;;3.63;;
54849;SDS011;47660;51.334;12.396;2023-05-14T02:24:45;8.00;;;4.00;;
54849;SDS011;47660;51.334;12.396;2023-05-14T02:27:10;7.53;;;3.97;;
54849;SDS011;47660;51.334;12.396;2023-05-14T02:29:39;6.18;;;3.33;;
54849;SDS011;47660;51.334;12.396;2023-05-14T02:32:04;8.90;;;4.00;;
54849;SDS011;47660;51.334;12.396;2023-05-14T02:34:30;13.45;;;4.47;;
54849;SDS011;47660;51.334;12.396;2023-05-14T02:36:58;4.55;;;3.40;;
54849;SDS011;47660;51.334;12.396;2023-05-14T02:39:23;8.02;;;4.20;;
54849;SDS011;47660;51.334;12.396;2023-05-14T02:41:49;5.57;;;4.10;;
54849;SDS011;47660;51.334;12.396;2023-05-14T02:44:14;7.55;;;4.28;;
54849;SDS011;47660;51.334;12.396;2023-05-14T02:46:42;7.10;;;3.95;;
54849;SDS011;47660;51.334;12.396;2023-05-14T02:49:07;6.30;;;4.10;;
54849;SDS011;47660;51.334;12.396;2023-05-14T02:51:33;6.22;;;4.20;;
54849;SDS011;47660;51.334;12.396;2023-05-14T02:54:01;6.38;;;3.83;;
54849;SDS011;47660;51.334;12.396;2023-05-14T02:56:26;7.55;;;4.18;;
54849;SDS011;47660;51.334;12.396;2023-05-14T02:58:52;6.75;;;3.85;;
54849;SDS011;47660;51.334;12.396;2023-05-14T03:01:22;6.60;;;4.00;;
54849;SDS011;47660;51.334;12.396;2023-05-14T03:03:50;5.57;;;3.80;;
54849;SDS011;47660;51.334;12.396;2023-05-14T03:06:15;8.43;;;3.85;;
54849;SDS011;47660;51.334;12.396;2023-05-14T03:08:41;7.13;;;4.10;;
54849;SDS011;47660;51.334;12.396;2023-05-14T03:11:09;6.78;;;4.43;;
54849;SDS011;47660;51.334;12.396;2023-05-14T03:13:34;8.05;;;3.95;;
54849;SDS011;47660;51.334;12.396;2023-05-14T03:16:00;8.35;;;4.25;;
54849;SDS011;47660;51.334;12.396;2023-05-14T03:18:25;4.38;;;3.60;;
54849;SDS011;47660;51.334;12.396;2023-05-14T03:20:52;6.30;;;4.03;;
54849;SDS011;47660;51.334;12.396;2023-05-14T03:23:17;6.18;;;3.88;;
54849;SDS011;47660;51.334;12.396;2023-05-14T03:25:45;6.00;;;3.95;;
54849;SDS011;47660;51.334;12.396;2023-05-14T03:28:12;6.88;;;3.92;;
54849;SDS011;47660;51.334;12.396;2023-05-14T03:30:37;9.07;;;3.85;;
54849;SDS011;47660;51.334;12.396;2023-05-14T03:33:03;6.63;;;3.95;;
54849;SDS011;47660;51.334;12.396;2023-05-14T03:35:28;7.97;;;4.20;;
54849;SDS011;47660;51.334;12.396;2023-05-14T03:37:53;6.70;;;4.05;;
54849;SDS011;47660;51.334;12.396;2023-05-14T03:40:24;6.85;;;4.10;;
54849;SDS011;47660;51.334;12.396;2023-05-14T03:42:52;5.88;;;4.18;;
54849;SDS011;47660;51.334;12.396;2023-05-14T03:45:18;6.75;;;4.55;;
54849;SDS011;47660;51.334;12.396;2023-05-14T03:47:46;5.20;;;4.03;;
54849;SDS011;47660;51.334;12.396;2023-05-14T03:50:11;5.65;;;3.97;;
54849;SDS011;47660;51.334;12.396;2023-05-14T03:52:39;6.43;;;4.10;;
54849;SDS011;47660;51.334;12.396;2023-05-14T03:55:05;8.68;;;4.35;;
54849;SDS011;47660;51.334;12.396;2023-05-14T03:57:31;8.05;;;4.70;;
54849;SDS011;47660;51.334;12.396;2023-05-14T03:59:56;7.25;;;3.85;;
54849;SDS011;47660;51.334;12.396;2023-05-14T04:02:22;5.25;;;4.00;;
54849;SDS011;47660;51.334;12.396;2023-05-14T04:04:48;7.07;;;4.38;;
54849;SDS011;47660;51.334;12.396;2023-05-14T04:07:13;5.78;;;3.85;;
54849;SDS011;47660;51.334;12.396;2023-05-14T04:09:38;5.47;;;3.78;;
54849;SDS011;47660;51.334;12.396;2023-05-14T04:12:04;5.18;;;3.47;;
54849;SDS011;47660;51.334;12.396;2023-05-14T04:14:30;7.43;;;4.68;;
54849;SDS011;47660;51.334;12.396;2023-05-14T04:16:58;5.75;;;3.78;;
54849;SDS011;47660;51.334;12.396;2023-05-14T04:19:24;5.97;;;4.07;;
54849;SDS011;47660;51.334;12.396;2023-05-14T04:21:49;6.35;;;4.00;;
54849;SDS011;47660;51.334;12.396;2023-05-14T04:24:15;4.55;;;3.45;;
54849;SDS011;47660;51.334;12.396;2023-05-14T04:26:41;5.15;;;3.78;;
54849;SDS011;47660;51.334;12.396;2023-05-14T04:29:09;5.85;;;4.00;;
54849;SDS011;47660;51.334;12.396;2023-05-14T04:31:34;5.53;;;3.97;;
54849;SDS011;47660;51.334;12.396;2023-05-14T04:34:00;5.50;;;3.70;;
54849;SDS011;47660;51.334;12.396;2023-05-14T04:36:25;5.68;;;4.03;;
54849;SDS011;47660;51.334;12.396;2023-05-14T04:38:51;5.13;;;3.55;;
54849;SDS011;47660;51.334;12.396;2023-05-14T04:41:16;7.68;;;3.92;;
54849;SDS011;47660;51.334;12.396;2023-05-14T04:43:41;7.40;;;3.78;;
54849;SDS011;47660;51.334;12.396;2023-05-14T04:46:07;4.93;;;3.63;;
54849;SDS011;47660;51.334;12.396;2023-05-14T04:48:33;5.32;;;3.53;;
54849;SDS011;47660;51.334;12.396;2023-05-14T04:50:58;6.25;;;3.90;;
54849;SDS011;47660;51.334;12.396;2023-05-14T04:53:24;5.32;;;4.35;;
54849;SDS011;47660;51.334;12.396;2023-05-14T04:55:51;5.07;;;3.35;;
54849;SDS011;47660;51.334;12.396;2023-05-14T04:58:18;4.55;;;3.58;;
54849;SDS011;47660;51.334;12.396;2023-05-14T05:00:43;5.65;;;3.90;;
54849;SDS011;47660;51.334;12.396;2023-05-14T05:03:08;7.80;;;3.85;;
54849;SDS011;47660;51.334;12.396;2023-05-14T05:05:36;6.57;;;3.65;;
54849;SDS011;47660;51.334;12.396;2023-05-14T05:08:01;6.18;;;3.78;;
54849;SDS011;47660;51.334;12.396;2023-05-14T05:10:27;5.53;;;3.63;;
54849;SDS011;47660;51.334;12.396;2023-05-14T05:12:53;7.90;;;3.95;;
54849;SDS011;47660;51.334;12.396;2023-05-14T05:15:18;6.63;;;3.53;;
54849;SDS011;47660;51.334;12.396;2023-05-14T05:17:44;5.95;;;3.92;;
54849;SDS011;47660;51.334;12.396;2023-05-14T05:20:09;5.80;;;3.95;;
54849;SDS011;47660;51.334;12.396;2023-05-14T05:22:35;5.97;;;3.83;;
54849;SDS011;47660;51.334;12.396;2023-05-14T05:25:01;6.43;;;4.28;;
54849;SDS011;47660;51.334;12.396;2023-05-14T05:27:30;6.07;;;3.72;;
54849;SDS011;47660;51.334;12.396;2023-05-14T05:29:57;5.15;;;3.80;;
54849;SDS011;47660;51.334;12.396;2023-05-14T05:32:25;5.70;;;3.60;;
54849;SDS011;47660;51.334;12.396;2023-05-14T05:34:51;4.90;;;3.58;;
54849;SDS011;47660;51.334;12.396;2023-05-14T05:37:17;5.40;;;3.88;;
54849;SDS011;47660;51.334;12.396;2023-05-14T05:39:42;7.38;;;3.80;;
54849;SDS011;47660;51.334;12.396;2023-05-14T05:42:08;6.60;;;4.10;;
54849;SDS011;47660;51.334;12.396;2023-05-14T05:44:33;7.28;;;3.88;;
54849;SDS011;47660;51.334;12.396;2023-05-14T05:46:59;7.28;;;4.43;;
54849;SDS011;47660;51.334;12.396;2023-05-14T05:49:24;6.53;;;4.03;;
54849;SDS011;47660;51.334;12.396;2023-05-14T05:51:50;6.57;;;3.72;;
54849;SDS011;47660;51.334;12.396;2023-05-14T05:54:21;8.38;;;3.92;;
54849;SDS011;47660;51.334;12.396;2023-05-14T05:56:47;5.32;;;3.70;;
54849;SDS011;47660;51.334;12.396;2023-05-14T05:59:15;7.05;;;4.35;;
54849;SDS011;47660;51.334;12.396;2023-05-14T06:01:41;5.68;;;3.90;;
54849;SDS011;47660;51.334;12.396;2023-05-14T06:04:10;5.25;;;3.90;;
54849;SDS011;47660;51.334;12.396;2023-05-14T06:06:36;7.78;;;4.30;;
54849;SDS011;47660;51.334;12.396;2023-05-14T06:09:01;7.25;;;4.22;;
54849;SDS011;47660;51.334;12.396;2023-05-14T06:11:27;5.60;;;3.90;;
54849;SDS011;47660;51.334;12.396;2023-05-14T06:13:53;5.47;;;3.65;;
54849;SDS011;47660;51.334;12.396;2023-05-14T06:16:21;6.35;;;4.22;;
54849;SDS011;47660;51.334;12.396;2023-05-14T06:18:46;5.90;;;4.35;;
54849;SDS011;47660;51.334;12.396;2023-05-14T06:21:16;6.25;;;4.10;;
54849;SDS011;47660;51.334;12.396;2023-05-14T06:23:41;7.53;;;4.13;;
54849;SDS011;47660;51.334;12.396;2023-05-14T06:26:07;5.93;;;3.88;;
54849;SDS011;47660;51.334;12.396;2023-05-14T06:28:34;6.22;;;3.92;;
54849;SDS011;47660;51.334;12.396;2023-05-14T06:31:08;6.75;;;4.53;;
54849;SDS011;47660;51.334;12.396;2023-05-14T06:33:34;6.43;;;4.22;;
54849;SDS011;47660;51.334;12.396;2023-05-14T06:36:01;7.38;;;3.95;;
54849;SDS011;47660;51.334;12.396;2023-05-14T06:38:30;6.35;;;4.25;;
54849;SDS011;47660;51.334;12.396;2023-05-14T06:40:58;5.88;;;3.67;;
54849;SDS011;47660;51.334;12.396;2023-05-14T06:43:23;5.75;;;4.03;;
54849;SDS011;47660;51.334;12.396;2023-05-14T06:45:52;5.03;;;4.00;;
54849;SDS011;47660;51.334;12.396;2023-05-14T06:48:19;6.20;;;3.75;;
54849;SDS011;47660;51.334;12.396;2023-05-14T06:50:48;6.50;;;3.97;;
54849;SDS011;47660;51.334;12.396;2023-05-14T06:53:13;6.20;;;4.10;;
54849;SDS011;47660;51.334;12.396;2023-05-14T06:55:39;7.05;;;4.20;;
54849;SDS011;47660;51.334;12.396;2023-05-14T06:58:07;5.68;;;4.10;;
54849;SDS011;47660;51.334;12.396;2023-05-14T07:00:33;5.10;;;3.92;;
54849;SDS011;47660;51.334;12.396;2023-05-14T07:03:01;5.20;;;4.10;;
54849;SDS011;47660;51.334;12.396;2023-05-14T07:05:26;6.97;;;4.28;;
54849;SDS011;47660;51.334;12.396;2023-05-14T07:07:55;5.90;;;4.25;;
54849;SDS011;47660;51.334;12.396;2023-05-14T07:10:21;5.28;;;3.65;;
54849;SDS011;47660;51.334;12.396;2023-05-14T07:12:46;4.93;;;3.50;;
54849;SDS011;47660;51.334;12.396;2023-05-14T07:15:14;5.03;;;3.53;;
54849;SDS011;47660;51.334;12.396;2023-05-14T07:17:40;4.82;;;3.53;;
54849;SDS011;47660;51.334;12.396;2023-05-14T07:20:08;4.18;;;3.50;;
54849;SDS011;47660;51.334;12.396;2023-05-14T07:22:33;4.20;;;3.17;;
54849;SDS011;47660;51.334;12.396;2023-05-14T07:24:59;7.32;;;3.97;;
54849;SDS011;47660;51.334;12.396;2023-05-14T07:27:27;4.93;;;3.35;;
54849;SDS011;47660;51.334;12.396;2023-05-14T07:29:52;5.25;;;3.25;;
54849;SDS011;47660;51.334;12.396;2023-05-14T07:32:20;5.07;;;3.25;;
54849;SDS011;47660;51.334;12.396;2023-05-14T07:34:48;3.78;;;3.10;;
54849;SDS011;47660;51.334;12.396;2023-05-14T07:37:14;6.45;;;3.58;;
54849;SDS011;47660;51.334;12.396;2023-05-14T07:39:39;4.93;;;3.42;;
54849;SDS011;47660;51.334;12.396;2023-05-14T07:42:05;4.20;;;3.30;;
54849;SDS011;47660;51.334;12.396;2023-05-14T07:44:31;5.30;;;3.13;;
54849;SDS011;47660;51.334;12.396;2023-05-14T07:46:57;6.78;;;3.53;;
54849;SDS011;47660;51.334;12.396;2023-05-14T07:49:22;3.72;;;2.55;;
54849;SDS011;47660;51.334;12.396;2023-05-14T07:51:48;4.13;;;2.95;;
54849;SDS011;47660;51.334;12.396;2023-05-14T07:54:17;5.20;;;3.30;;
54849;SDS011;47660;51.334;12.396;2023-05-14T07:56:45;5.13;;;3.08;;
54849;SDS011;47660;51.334;12.396;2023-05-14T07:59:11;6.00;;;3.30;;
54849;SDS011;47660;51.334;12.396;2023-05-14T08:01:36;3.97;;;2.90;;
54849;SDS011;47660;51.334;12.396;2023-05-14T08:04:02;5.57;;;3.10;;
54849;SDS011;47660;51.334;12.396;2023-05-14T08:06:30;3.65;;;3.05;;
54849;SDS011;47660;51.334;12.396;2023-05-14T08:09:01;5.45;;;3.05;;
54849;SDS011;47660;51.334;12.396;2023-05-14T08:11:28;4.95;;;3.33;;
54849;SDS011;47660;51.334;12.396;2023-05-14T08:13:53;4.22;;;3.13;;
54849;SDS011;47660;51.334;12.396;2023-05-14T08:16:19;4.38;;;3.30;;
54849;SDS011;47660;51.334;12.396;2023-05-14T08:18:44;4.55;;;3.28;;
54849;SDS011;47660;51.334;12.396;2023-05-14T08:21:10;6.15;;;3.85;;
54849;SDS011;47660;51.334;12.396;2023-05-14T08:23:35;3.85;;;3.17;;
54849;SDS011;47660;51.334;12.396;2023-05-14T08:26:01;4.68;;;3.35;;
54849;SDS011;47660;51.334;12.396;2023-05-14T08:28:27;7.30;;;4.10;;
54849;SDS011;47660;51.334;12.396;2023-05-14T08:30:52;5.35;;;3.85;;
54849;SDS011;47660;51.334;12.396;2023-05-14T08:33:20;4.88;;;3.47;;
54849;SDS011;47660;51.334;12.396;2023-05-14T08:35:49;4.82;;;3.30;;
54849;SDS011;47660;51.334;12.396;2023-05-14T08:38:17;5.35;;;3.65;;
54849;SDS011;47660;51.334;12.396;2023-05-14T08:40:46;5.65;;;3.28;;
54849;SDS011;47660;51.334;12.396;2023-05-14T08:43:18;7.07;;;3.75;;
54849;SDS011;47660;51.334;12.396;2023-05-14T08:46:04;7.88;;;3.70;;
54849;SDS011;47660;51.334;12.396;2023-05-14T08:48:31;4.95;;;3.42;;
54849;SDS011;47660;51.334;12.396;2023-05-14T08:51:00;6.25;;;3.42;;
54849;SDS011;47660;51.334;12.396;2023-05-14T08:53:26;3.95;;;3.53;;
54849;SDS011;47660;51.334;12.396;2023-05-14T08:55:51;5.43;;;3.80;;
54849;SDS011;47660;51.334;12.396;2023-05-14T08:58:20;4.35;;;3.45;;
54849;SDS011;47660;51.334;12.396;2023-05-14T09:00:46;5.53;;;3.70;;
54849;SDS011;47660;51.334;12.396;2023-05-14T09:03:11;7.30;;;3.92;;
54849;SDS011;47660;51.334;12.396;2023-05-14T09:05:38;5.13;;;3.65;;
54849;SDS011;47660;51.334;12.396;2023-05-14T09:08:05;4.22;;;3.65;;
54849;SDS011;47660;51.334;12.396;2023-05-14T09:10:31;6.15;;;3.60;;
54849;SDS011;47660;51.334;12.396;2023-05-14T09:13:01;6.97;;;4.05;;
54849;SDS011;47660;51.334;12.396;2023-05-14T09:15:27;6.78;;;3.65;;
54849;SDS011;47660;51.334;12.396;2023-05-14T09:17:56;4.68;;;3.53;;
54849;SDS011;47660;51.334;12.396;2023-05-14T09:20:24;4.65;;;3.25;;
54849;SDS011;47660;51.334;12.396;2023-05-14T09:22:55;5.88;;;3.47;;
54849;SDS011;47660;51.334;12.396;2023-05-14T09:25:25;4.85;;;3.20;;
54849;SDS011;47660;51.334;12.396;2023-05-14T09:27:51;3.45;;;2.78;;
54849;SDS011;47660;51.334;12.396;2023-05-14T09:30:18;5.70;;;3.25;;
54849;SDS011;47660;51.334;12.396;2023-05-14T09:32:44;5.93;;;3.05;;
54849;SDS011;47660;51.334;12.396;2023-05-14T09:37:50;3.10;;;2.80;;
54849;SDS011;47660;51.334;12.396;2023-05-14T09:40:17;4.63;;;3.17;;
54849;SDS011;47660;51.334;12.396;2023-05-14T09:42:46;3.33;;;2.65;;
54849;SDS011;47660;51.334;12.396;2023-05-14T09:45:13;4.97;;;3.10;;
54849;SDS011;47660;51.334;12.396;2023-05-14T09:47:45;5.18;;;3.08;;
54849;SDS011;47660;51.334;12.396;2023-05-14T09:50:10;4.05;;;3.25;;
54849;SDS011;47660;51.334;12.396;2023-05-14T09:52:39;4.60;;;3.30;;
54849;SDS011;47660;51.334;12.396;2023-05-14T09:55:06;4.65;;;3.47;;
54849;SDS011;47660;51.334;12.396;2023-05-14T09:57:32;3.45;;;3.15;;
54849;SDS011;47660;51.334;12.396;2023-05-14T10:00:08;4.35;;;3.40;;
54849;SDS011;47660;51.334;12.396;2023-05-14T10:02:40;5.75;;;3.33;;
54849;SDS011;47660;51.334;12.396;2023-05-14T10:05:08;3.83;;;3.05;;
54849;SDS011;47660;51.334;12.396;2023-05-14T10:07:41;4.03;;;3.17;;
54849;SDS011;47660;51.334;12.396;2023-05-14T10:10:15;4.82;;;3.08;;
54849;SDS011;47660;51.334;12.396;2023-05-14T10:12:56;5.15;;;3.38;;
54849;SDS011;47660;51.334;12.396;2023-05-14T10:15:36;3.70;;;3.22;;
54849;SDS011;47660;51.334;12.396;2023-05-14T10:18:23;4.70;;;3.30;;
54849;SDS011;47660;51.334;12.396;2023-05-14T10:21:12;3.67;;;2.78;;
54849;SDS011;47660;51.334;12.396;2023-05-14T10:23:38;5.25;;;3.05;;
54849;SDS011;47660;51.334;12.396;2023-05-14T10:26:05;3.65;;;2.70;;
54849;SDS011;47660;51.334;12.396;2023-05-14T10:28:34;4.45;;;2.80;;
54849;SDS011;47660;51.334;12.396;2023-05-14T10:31:03;4.15;;;3.25;;
54849;SDS011;47660;51.334;12.396;2023-05-14T10:33:33;5.40;;;3.60;;
54849;SDS011;47660;51.334;12.396;2023-05-14T10:36:13;3.70;;;3.10;;
54849;SDS011;47660;51.334;12.396;2023-05-14T10:38:44;4.70;;;3.40;;
54849;SDS011;47660;51.334;12.396;2023-05-14T10:41:18;3.45;;;3.00;;
54849;SDS011;47660;51.334;12.396;2023-05-14T10:43:45;6.20;;;3.05;;
54849;SDS011;47660;51.334;12.396;2023-05-14T10:46:12;4.53;;;3.00;;
54849;SDS011;47660;51.334;12.396;2023-05-14T10:48:41;3.58;;;3.00;;
54849;SDS011;47660;51.334;12.396;2023-05-14T10:51:08;7.10;;;3.45;;
54849;SDS011;47660;51.334;12.396;2023-05-14T10:53:37;4.85;;;3.08;;
54849;SDS011;47660;51.334;12.396;2023-05-14T10:56:06;3.80;;;2.80;;
54849;SDS011;47660;51.334;12.396;2023-05-14T10:58:35;3.28;;;2.65;;
54849;SDS011;47660;51.334;12.396;2023-05-14T11:01:06;6.40;;;3.17;;
54849;SDS011;47660;51.334;12.396;2023-05-14T11:03:37;4.68;;;2.92;;
54849;SDS011;47660;51.334;12.396;2023-05-14T11:06:04;4.72;;;2.88;;
54849;SDS011;47660;51.334;12.396;2023-05-14T11:08:33;14.45;;;3.85;;
54849;SDS011;47660;51.334;12.396;2023-05-14T11:10:59;3.47;;;3.10;;
54849;SDS011;47660;51.334;12.396;2023-05-14T11:13:25;4.50;;;2.88;;
54849;SDS011;47660;51.334;12.396;2023-05-14T11:15:51;4.78;;;2.97;;
54849;SDS011;47660;51.334;12.396;2023-05-14T11:18:28;4.07;;;3.10;;
54849;SDS011;47660;51.334;12.396;2023-05-14T11:21:01;3.45;;;2.80;;
54849;SDS011;47660;51.334;12.396;2023-05-14T11:23:26;3.25;;;2.90;;
54849;SDS011;47660;51.334;12.396;2023-05-14T11:25:52;4.40;;;3.35;;
54849;SDS011;47660;51.334;12.396;2023-05-14T11:28:22;3.92;;;3.20;;
54849;SDS011;47660;51.334;12.396;2023-05-14T11:30:50;3.40;;;3.10;;
54849;SDS011;47660;51.334;12.396;2023-05-14T11:33:18;4.10;;;3.20;;
54849;SDS011;47660;51.334;12.396;2023-05-14T11:35:47;5.43;;;3.33;;
54849;SDS011;47660;51.334;12.396;2023-05-14T11:38:16;5.88;;;3.00;;
54849;SDS011;47660;51.334;12.396;2023-05-14T11:40:54;7.40;;;3.35;;
54849;SDS011;47660;51.334;12.396;2023-05-14T11:43:26;7.13;;;3.30;;
54849;SDS011;47660;51.334;12.396;2023-05-14T11:45:54;7.63;;;3.30;;
54849;SDS011;47660;51.334;12.396;2023-05-14T11:48:20;4.88;;;2.72;;
54849;SDS011;47660;51.334;12.396;2023-05-14T11:50:49;5.05;;;2.38;;
54849;SDS011;47660;51.334;12.396;2023-05-14T11:53:21;4.03;;;3.00;;
54849;SDS011;47660;51.334;12.396;2023-05-14T11:55:49;2.97;;;2.67;;
54849;SDS011;47660;51.334;12.396;2023-05-14T11:58:14;4.03;;;2.70;;
54849;SDS011;47660;51.334;12.396;2023-05-14T12:00:48;4.28;;;2.67;;
54849;SDS011;47660;51.334;12.396;2023-05-14T12:03:14;2.70;;;2.08;;
54849;SDS011;47660;51.334;12.396;2023-05-14T12:05:56;2.42;;;2.22;;
54849;SDS011;47660;51.334;12.396;2023-05-14T12:08:27;2.50;;;2.10;;
54849;SDS011;47660;51.334;12.396;2023-05-14T12:10:54;2.47;;;1.80;;
54849;SDS011;47660;51.334;12.396;2023-05-14T12:13:26;2.70;;;2.42;;
54849;SDS011;47660;51.334;12.396;2023-05-14T12:15:56;5.05;;;2.03;;
54849;SDS011;47660;51.334;12.396;2023-05-14T12:18:26;3.47;;;2.03;;
54849;SDS011;47660;51.334;12.396;2023-05-14T12:20:55;3.22;;;1.88;;
54849;SDS011;47660;51.334;12.396;2023-05-14T12:23:28;2.35;;;1.40;;
54849;SDS011;47660;51.334;12.396;2023-05-14T12:25:59;2.65;;;2.00;;
54849;SDS011;47660;51.334;12.396;2023-05-14T12:28:30;2.53;;;2.08;;
54849;SDS011;47660;51.334;12.396;2023-05-14T12:30:55;2.35;;;1.90;;
54849;SDS011;47660;51.334;12.396;2023-05-14T12:33:21;5.25;;;2.10;;
54849;SDS011;47660;51.334;12.396;2023-05-14T12:35:47;2.92;;;2.20;;
54849;SDS011;47660;51.334;12.396;2023-05-14T12:38:13;4.22;;;2.50;;
54849;SDS011;47660;51.334;12.396;2023-05-14T12:40:41;2.83;;;2.30;;
54849;SDS011;47660;51.334;12.396;2023-05-14T12:43:07;3.10;;;2.30;;
54849;SDS011;47660;51.334;12.396;2023-05-14T12:45:32;6.03;;;3.13;;
54849;SDS011;47660;51.334;12.396;2023-05-14T12:47:57;3.00;;;2.50;;
54849;SDS011;47660;51.334;12.396;2023-05-14T12:50:25;3.13;;;2.42;;
54849;SDS011;47660;51.334;12.396;2023-05-14T12:52:50;2.80;;;2.13;;
54849;SDS011;47660;51.334;12.396;2023-05-14T12:55:21;2.75;;;2.40;;
54849;SDS011;47660;51.334;12.396;2023-05-14T12:57:49;5.43;;;2.90;;
54849;SDS011;47660;51.334;12.396;2023-05-14T13:00:15;3.03;;;2.72;;
54849;SDS011;47660;51.334;12.396;2023-05-14T13:02:41;3.33;;;2.55;;
54849;SDS011;47660;51.334;12.396;2023-05-14T13:05:06;2.78;;;2.40;;
54849;SDS011;47660;51.334;12.396;2023-05-14T13:07:35;4.53;;;2.60;;
54849;SDS011;47660;51.334;12.396;2023-05-14T13:10:03;3.33;;;2.40;;
54849;SDS011;47660;51.334;12.396;2023-05-14T13:12:35;3.28;;;2.25;;
54849;SDS011;47660;51.334;12.396;2023-05-14T13:15:00;3.50;;;2.35;;
54849;SDS011;47660;51.334;12.396;2023-05-14T13:17:28;3.53;;;1.80;;
54849;SDS011;47660;51.334;12.396;2023-05-14T13:19:57;3.63;;;1.60;;
54849;SDS011;47660;51.334;12.396;2023-05-14T13:22:26;2.13;;;1.77;;
54849;SDS011;47660;51.334;12.396;2023-05-14T13:24:52;3.10;;;1.80;;
54849;SDS011;47660;51.334;12.396;2023-05-14T13:27:18;2.88;;;2.00;;
54849;SDS011;47660;51.334;12.396;2023-05-14T13:29:48;2.28;;;1.40;;
54849;SDS011;47660;51.334;12.396;2023-05-14T13:32:19;1.90;;;1.67;;
54849;SDS011;47660;51.334;12.396;2023-05-14T13:34:47;2.78;;;1.83;;
54849;SDS011;47660;51.334;12.396;2023-05-14T13:37:14;2.00;;;1.80;;
54849;SDS011;47660;51.334;12.396;2023-05-14T13:39:40;2.00;;;1.80;;
54849;SDS011;47660;51.334;12.396;2023-05-14T13:42:05;3.72;;;2.25;;
54849;SDS011;47660;51.334;12.396;2023-05-14T13:44:31;4.03;;;1.77;;
54849;SDS011;47660;51.334;12.396;2023-05-14T13:47:02;2.72;;;2.17;;
54849;SDS011;47660;51.334;12.396;2023-05-14T13:49:28;4.45;;;2.00;;
54849;SDS011;47660;51.334;12.396;2023-05-14T13:52:01;3.00;;;1.80;;
54849;SDS011;47660;51.334;12.396;2023-05-14T13:54:27;3.25;;;1.88;;
54849;SDS011;47660;51.334;12.396;2023-05-14T13:56:52;2.38;;;2.10;;
54849;SDS011;47660;51.334;12.396;2023-05-14T13:59:21;3.45;;;2.33;;
54849;SDS011;47660;51.334;12.396;2023-05-14T14:01:49;2.72;;;2.10;;
54849;SDS011;47660;51.334;12.396;2023-05-14T14:04:18;2.33;;;2.10;;
54849;SDS011;47660;51.334;12.396;2023-05-14T14:06:44;2.58;;;2.20;;
54849;SDS011;47660;51.334;12.396;2023-05-14T14:09:12;2.58;;;2.20;;
54849;SDS011;47660;51.334;12.396;2023-05-14T14:11:43;2.80;;;2.30;;
54849;SDS011;47660;51.334;12.396;2023-05-14T14:14:09;3.20;;;2.40;;
54849;SDS011;47660;51.334;12.396;2023-05-14T14:16:35;2.70;;;2.42;;
54849;SDS011;47660;51.334;12.396;2023-05-14T14:19:02;3.72;;;2.40;;
54849;SDS011;47660;51.334;12.396;2023-05-14T14:21:29;3.30;;;2.20;;
54849;SDS011;47660;51.334;12.396;2023-05-14T14:23:58;5.32;;;1.98;;
54849;SDS011;47660;51.334;12.396;2023-05-14T14:26:27;3.15;;;2.20;;
54849;SDS011;47660;51.334;12.396;2023-05-14T14:29:25;2.97;;;1.90;;
54849;SDS011;47660;51.334;12.396;2023-05-14T14:31:52;1.95;;;1.75;;
54849;SDS011;47660;51.334;12.396;2023-05-14T14:34:22;2.67;;;1.95;;
54849;SDS011;47660;51.334;12.396;2023-05-14T14:36:51;3.63;;;2.30;;
54849;SDS011;47660;51.334;12.396;2023-05-14T14:39:18;3.00;;;2.33;;
54849;SDS011;47660;51.334;12.396;2023-05-14T14:41:44;2.55;;;2.30;;
54849;SDS011;47660;51.334;12.396;2023-05-14T14:44:12;2.83;;;2.22;;
54849;SDS011;47660;51.334;12.396;2023-05-14T14:46:37;3.50;;;2.55;;
54849;SDS011;47660;51.334;12.396;2023-05-14T14:49:03;3.45;;;2.40;;